Executive Decision — CFK9267 — position and weather

sailwx.info

Track history (hours):
 
Tides and Currents Weather Stations Pressure Air Temp Water Temp Dewpoint Dewpoint Depression Visibility Wind Speed Wind Dir Waves Ship Positions

Executive Decision

Last reported at 2016-May-21 14:30 UTC. Time now 2016-Aug-28 12:08 UTC.
Position N 33°21' W 118°19'.
Warning: this ship's position is months out of date.

Length 14 m.

Type: Pleasure craft. MMSI: 316015863.

Date/timePositionNaut miles runAvg speedWind from/ knotsBaromVisibWave heightAir tempDewpointWater temp
2016-May-21 14:30N 33°21' W 118°19'  
2016-May-18 20:05N 33°23' W 117°38'5 6.6
2016-May-18 19:19N 33°19' W 117°34'4 5.9
2016-May-18 18:33N 33°16' W 117°30'5 5.3
2016-May-18 17:33N 33°13' W 117°25'1 0.0
2016-May-17 23:29N 33°13' W 117°24'6 5.9
2016-May-17 22:33N 33°07' W 117°23'6 5.8
2016-May-17 21:33N 33°02' W 117°21'5 5.3
2016-May-17 20:34N 32°56' W 117°20'6 6.0
2016-May-17 19:33N 32°51' W 117°18'  
2016-May-13 19:06N 32°49' W 117°18'3 6.0
2016-May-13 18:33N 32°53' W 117°18'6 5.7
2016-May-13 17:33N 32°58' W 117°19'6 5.5
2016-May-13 16:33N 33°04' W 117°21'5 4.8
2016-May-13 15:33N 33°08' W 117°23'3 0.2
2016-May-12 22:33N 33°11' W 117°24'1 1.1
2016-May-12 21:33N 33°10' W 117°24'5 4.7
2016-May-12 20:33N 33°12' W 117°29'4 4.4
2016-May-12 19:33N 33°16' W 117°32'2 1.7
2016-May-12 18:28N 33°17' W 117°34'  
Track history (hours):
 
Tides and Currents Weather Stations Pressure Air Temp Water Temp Dewpoint Dewpoint Depression Visibility Wind Speed Wind Dir Waves Ship Positions

Executive Decision

Last reported at 2016-May-21 14:30 UTC. Time now 2016-Aug-28 12:08 UTC.
Position N 33°21' W 118°19'.
Warning: this ship's position is months out of date.

Length 14 m.

Type: Pleasure craft. MMSI: 316015863.

Date/timePositionNaut miles runAvg speedWind from/ knotsBaromVisibWave heightAir tempDewpointWater temp
2016-May-21 14:30N 33°21' W 118°19'  
2016-May-18 20:05N 33°23' W 117°38'5 6.6
2016-May-18 19:19N 33°19' W 117°34'4 5.9
2016-May-18 18:33N 33°16' W 117°30'5 5.3
2016-May-18 17:33N 33°13' W 117°25'1 0.0
2016-May-17 23:29N 33°13' W 117°24'6 5.9
2016-May-17 22:33N 33°07' W 117°23'6 5.8
2016-May-17 21:33N 33°02' W 117°21'5 5.3
2016-May-17 20:34N 32°56' W 117°20'6 6.0
2016-May-17 19:33N 32°51' W 117°18'  
2016-May-13 19:06N 32°49' W 117°18'3 6.0
2016-May-13 18:33N 32°53' W 117°18'6 5.7
2016-May-13 17:33N 32°58' W 117°19'6 5.5
2016-May-13 16:33N 33°04' W 117°21'5 4.8
2016-May-13 15:33N 33°08' W 117°23'3 0.2
2016-May-12 22:33N 33°11' W 117°24'1 1.1
2016-May-12 21:33N 33°10' W 117°24'5 4.7
2016-May-12 20:33N 33°12' W 117°29'4 4.4
2016-May-12 19:33N 33°16' W 117°32'2 1.7
2016-May-12 18:28N 33°17' W 117°34'  

Dump ship's entire track history